Time;durP1;ratioP1;P1;durP2;ratioP2;P2;SDS_P1;SDS_P2;PMS_P1;PMS_P2;Temp;Humidity;BMP_temperature;BMP_pressure;BME280_temperature;BME280_humidity;BME280_pressure;Samples;Min_cycle;Max_cycle;Signal;HPM_P1;HPM_P2
2022/08/29 00:00:33;;;;;;;8.18;1.90;;;;;;;13.94;100.00;101831.53;5052474;28;20024;-76
2022/08/29 00:03:01;;;;;;;5.28;2.03;;;;;;;13.90;100.00;101832.75;5053595;28;20536;-76
2022/08/29 00:05:34;;;;;;;7.53;1.60;;;;;;;13.93;100.00;101829.75;5042979;28;20401;-76
2022/08/29 00:08:02;;;;;;;3.40;2.00;;;;;;;13.93;100.00;101834.41;5052719;28;20494;-75
2022/08/29 00:10:30;;;;;;;9.60;2.38;;;;;;;13.97;100.00;101823.03;5053704;28;20038;-76
2022/08/29 00:13:00;;;;;;;6.50;2.20;;;;;;;13.89;100.00;101828.25;5041178;28;20119;-74
2022/08/29 00:15:32;;;;;;;6.22;2.42;;;;;;;13.81;100.00;101827.06;5053604;28;20071;-76
2022/08/29 00:18:00;;;;;;;10.02;2.88;;;;;;;13.87;100.00;101830.25;5050761;28;20056;-75
2022/08/29 00:20:31;;;;;;;8.63;2.20;;;;;;;13.88;100.00;101826.47;5058378;28;20044;-76
2022/08/29 00:23:04;;;;;;;4.03;1.77;;;;;;;13.92;100.00;101824.38;5052990;28;20112;-76
2022/08/29 00:25:30;;;;;;;6.65;1.95;;;;;;;13.79;100.00;101821.72;5053265;28;20041;-76
2022/08/29 00:28:00;;;;;;;6.93;2.13;;;;;;;13.77;100.00;101824.59;5052579;28;20024;-75
2022/08/29 00:30:33;;;;;;;;;;;;;;;13.56;100.00;101827.09;5054893;28;20033;-75
2022/08/29 00:33:07;;;;;;;10.90;2.10;;;;;;;13.57;100.00;101830.72;5052924;28;19924;-75
2022/08/29 00:35:39;;;;;;;6.72;2.13;;;;;;;13.62;100.00;101825.75;5040706;28;20704;-75
2022/08/29 00:38:10;;;;;;;;;;;;;;;13.66;100.00;101830.03;5057563;28;20037;-76
2022/08/29 00:40:46;;;;;;;11.35;2.50;;;;;;;13.62;100.00;101831.25;5054294;28;19928;-76
2022/08/29 00:43:12;;;;;;;7.53;2.38;;;;;;;13.58;100.00;101825.09;5051305;28;20045;-75
2022/08/29 00:45:46;;;;;;;10.68;2.03;;;;;;;13.66;100.00;101821.78;5054334;28;20033;-75
2022/08/29 00:48:16;;;;;;;6.50;2.15;;;;;;;13.62;100.00;101835.88;5052741;28;20412;-75
2022/08/29 00:50:47;;;;;;;9.80;2.65;;;;;;;13.59;100.00;101835.13;5040173;28;20033;-75
2022/08/29 00:53:21;;;;;;;2.85;2.00;;;;;;;13.45;100.00;101840.78;5051297;28;20127;-75
2022/08/29 00:55:48;;;;;;;5.10;2.10;;;;;;;13.54;100.00;101834.59;5053531;28;20170;-75
2022/08/29 00:58:31;;;;;;;7.50;2.55;;;;;;;13.55;100.00;101838.22;5050755;28;20191;-75
2022/08/29 01:00:59;;;;;;;16.00;2.58;;;;;;;13.58;100.00;101844.38;5050619;28;20025;-77
2022/08/29 01:03:35;;;;;;;5.55;2.20;;;;;;;13.68;100.00;101839.03;5050405;28;20078;-76
2022/08/29 01:06:04;;;;;;;4.28;2.40;;;;;;;13.62;100.00;101834.00;5047627;28;20036;-75
2022/08/29 01:08:30;;;;;;;11.52;2.75;;;;;;;13.67;100.00;101837.28;5040556;28;20480;-76
2022/08/29 01:13:46;;;;;;;4.82;2.40;;;;;;;13.73;100.00;101838.69;5054163;28;20094;-75
2022/08/29 01:16:13;;;;;;;4.72;2.33;;;;;;;13.64;100.00;101850.41;5050671;28;20033;-76
2022/08/29 01:18:46;;;;;;;8.05;2.70;;;;;;;13.52;100.00;101852.22;5056152;28;20036;-76
2022/08/29 01:21:38;;;;;;;7.35;2.38;;;;;;;13.59;100.00;101848.88;5053255;28;20042;-76
2022/08/29 01:24:14;;;;;;;7.43;2.50;;;;;;;13.48;100.00;101843.31;5047297;28;20051;-76
2022/08/29 01:26:45;;;;;;;5.80;2.63;;;;;;;13.35;100.00;101850.75;5053477;28;20017;-74
2022/08/29 01:29:15;;;;;;;8.85;2.60;;;;;;;13.44;100.00;101844.53;5050941;28;20195;-75
2022/08/29 01:31:45;;;;;;;7.03;2.97;;;;;;;13.49;100.00;101844.19;5051815;28;20033;-76
2022/08/29 01:34:19;;;;;;;9.57;3.42;;;;;;;13.24;100.00;101835.00;5050880;28;20074;-75
2022/08/29 01:36:57;;;;;;;7.45;3.15;;;;;;;13.25;100.00;101834.03;5037209;28;20057;-75
2022/08/29 01:39:35;;;;;;;5.60;2.63;;;;;;;13.01;100.00;101843.06;5049477;28;20041;-76
2022/08/29 01:42:05;;;;;;;7.28;2.60;;;;;;;12.75;100.00;101835.88;5052900;28;20032;-76
2022/08/29 01:44:36;;;;;;;9.30;2.33;;;;;;;12.66;100.00;101843.78;5050713;28;20062;-75
2022/08/29 01:47:05;;;;;;;5.88;2.38;;;;;;;12.66;100.00;101837.44;5040862;28;20573;-76
2022/08/29 01:49:33;;;;;;;10.48;2.60;;;;;;;12.66;100.00;101838.28;5053059;28;20027;-76
2022/08/29 01:52:06;;;;;;;8.57;2.95;;;;;;;12.60;100.00;101844.22;5056074;28;20090;-75
2022/08/29 01:54:35;;;;;;;8.90;3.25;;;;;;;12.58;100.00;101840.72;5047055;28;20033;-75
2022/08/29 01:57:03;;;;;;;9.63;3.75;;;;;;;12.59;100.00;101837.00;5050574;28;20052;-76
2022/08/29 01:59:30;;;;;;;6.85;3.05;;;;;;;12.43;100.00;101837.22;5055739;28;20420;-76
2022/08/29 02:02:19;;;;;;;5.47;3.03;;;;;;;12.31;100.00;101844.44;5040191;28;20387;-75
2022/08/29 02:04:47;;;;;;;8.02;3.40;;;;;;;12.46;100.00;101847.97;5068102;28;20032;-75
2022/08/29 02:07:18;;;;;;;8.88;3.47;;;;;;;12.35;100.00;101838.72;5038829;28;20448;-75
2022/08/29 02:09:45;;;;;;;8.98;3.72;;;;;;;12.37;100.00;101840.38;5051018;28;20396;-74
2022/08/29 02:12:16;;;;;;;8.10;3.03;;;;;;;12.36;100.00;101840.50;5054413;28;20090;-75
2022/08/29 02:14:45;;;;;;;6.18;3.45;;;;;;;12.17;100.00;101841.78;5056164;28;20628;-75
2022/08/29 02:17:18;;;;;;;;;;;;;;;12.09;100.00;101845.06;5057471;28;20112;-74
2022/08/29 02:19:45;;;;;;;8.82;3.42;;;;;;;11.93;100.00;101837.00;5027626;28;19924;-74
2022/08/29 02:22:14;;;;;;;11.43;3.33;;;;;;;11.95;100.00;101845.13;5055742;28;20071;-76
2022/08/29 02:24:42;;;;;;;7.68;3.10;;;;;;;11.80;100.00;101838.81;5054118;28;20083;-75
2022/08/29 02:27:09;;;;;;;9.40;3.17;;;;;;;11.78;100.00;101836.16;5055446;28;20040;-76
2022/08/29 02:29:38;;;;;;;6.45;3.65;;;;;;;11.90;100.00;101847.28;5054616;28;20029;-75
2022/08/29 02:32:12;;;;;;;12.20;3.30;;;;;;;12.09;100.00;101850.56;5043175;28;20071;-75
2022/08/29 02:34:39;;;;;;;11.73;3.83;;;;;;;12.25;100.00;101852.25;5052826;28;20123;-76
2022/08/29 02:37:08;;;;;;;8.23;3.50;;;;;;;12.15;100.00;101846.53;5058208;28;20049;-76
2022/08/29 02:39:35;;;;;;;9.55;3.92;;;;;;;12.13;100.00;101857.59;5036245;28;20037;-76
2022/08/29 02:42:02;;;;;;;5.78;3.95;;;;;;;12.08;100.00;101850.66;5051648;28;20044;-75
2022/08/29 02:44:27;;;;;;;7.28;3.80;;;;;;;12.22;100.00;101852.47;5042946;28;20029;-76
2022/08/29 02:46:57;;;;;;;8.80;3.42;;;;;;;12.31;100.00;101855.44;5053606;28;20047;-77
2022/08/29 02:49:28;;;;;;;7.88;3.25;;;;;;;12.29;100.00;101851.91;5056028;28;20035;-76
2022/08/29 02:51:54;;;;;;;11.40;3.70;;;;;;;12.34;100.00;101850.72;5053777;28;20321;-75
2022/08/29 02:54:27;;;;;;;7.43;4.05;;;;;;;12.27;100.00;101844.78;5055018;28;20055;-77
2022/08/29 02:56:57;;;;;;;7.97;3.38;;;;;;;12.23;100.00;101838.63;5028560;28;20049;-75
2022/08/29 02:59:26;;;;;;;14.93;3.50;;;;;;;12.13;100.00;101843.88;5052917;28;20036;-75
2022/08/29 03:01:54;;;;;;;10.18;3.65;;;;;;;12.27;100.00;101856.63;5057145;28;20399;-76
2022/08/29 03:04:21;;;;;;;9.35;4.15;;;;;;;12.30;100.00;101848.19;5055227;28;20578;-75
2022/08/29 03:06:50;;;;;;;10.02;4.07;;;;;;;12.36;100.00;101859.72;5054983;28;20207;-75
2022/08/29 03:09:24;;;;;;;6.68;4.38;;;;;;;12.24;100.00;101850.47;5068659;28;20056;-75
2022/08/29 03:11:54;;;;;;;11.27;4.00;;;;;;;12.49;100.00;101856.00;5038668;28;20519;-75
2022/08/29 03:14:27;;;;;;;12.10;3.80;;;;;;;12.55;100.00;101846.44;5055395;28;20098;-75
2022/08/29 03:16:53;;;;;;;16.23;4.93;;;;;;;12.46;100.00;101841.56;5029637;28;20045;-76
2022/08/29 03:19:19;;;;;;;16.80;4.93;;;;;;;12.49;100.00;101842.28;5050795;28;20036;-76
2022/08/29 03:21:46;;;;;;;11.82;4.57;;;;;;;12.48;100.00;101834.13;5053331;28;20048;-76
2022/08/29 03:24:14;;;;;;;9.25;3.80;;;;;;;12.46;100.00;101836.09;5042012;28;20061;-75
2022/08/29 03:26:39;;;;;;;9.48;3.75;;;;;;;12.24;100.00;101832.13;5051962;28;20108;-76
2022/08/29 03:29:07;;;;;;;11.25;4.47;;;;;;;12.19;100.00;101827.97;5056724;28;20071;-76
2022/08/29 03:31:34;;;;;;;16.40;5.25;;;;;;;12.40;100.00;101837.41;5051639;28;20041;-75
2022/08/29 03:34:07;;;;;;;13.35;4.80;;;;;;;12.52;100.00;101835.66;5053903;28;20112;-76
2022/08/29 03:36:33;;;;;;;16.17;5.53;;;;;;;12.48;100.00;101846.00;5052942;28;20184;-75
2022/08/29 03:39:00;;;;;;;8.30;4.95;;;;;;;12.36;100.00;101841.34;5053832;28;20047;-75
2022/08/29 03:41:27;;;;;;;19.17;5.68;;;;;;;12.30;100.00;101831.69;5052277;28;20692;-75
2022/08/29 03:43:59;;;;;;;;;;;;;;;12.27;100.00;101840.16;5054627;28;20041;-76
2022/08/29 03:46:25;;;;;;;10.75;4.68;;;;;;;12.34;100.00;101840.59;5054438;28;19924;-75
2022/08/29 03:48:53;;;;;;;9.98;4.60;;;;;;;12.37;100.00;101842.25;5055907;28;20071;-74
2022/08/29 03:51:18;;;;;;;12.30;4.72;;;;;;;12.31;100.00;101829.81;5049625;28;20031;-76
2022/08/29 03:53:45;;;;;;;16.85;5.43;;;;;;;12.21;100.00;101839.69;5045283;28;20378;-76
2022/08/29 03:56:11;;;;;;;16.63;5.32;;;;;;;12.06;100.00;101836.16;5049821;28;20041;-75
2022/08/29 03:58:44;;;;;;;;;;;;;;;11.90;100.00;101826.22;5053773;28;20020;-75
2022/08/29 04:01:10;;;;;;;12.98;5.57;;;;;;;11.86;100.00;101838.41;5038655;28;19924;-73
2022/08/29 04:03:36;;;;;;;8.77;4.68;;;;;;;11.88;100.00;101835.53;5053436;28;20048;-75
2022/08/29 04:06:01;;;;;;;15.18;5.25;;;;;;;11.78;100.00;101827.94;5050881;28;20047;-75
2022/08/29 04:08:29;;;;;;;16.40;6.53;;;;;;;11.85;100.00;101833.88;5009927;28;20041;-74
2022/08/29 04:10:58;;;;;;;16.60;5.05;;;;;;;11.80;100.00;101830.56;5050048;28;20029;-75
2022/08/29 04:13:25;;;;;;;11.50;6.15;;;;;;;11.88;100.00;101827.31;5050791;28;20086;-76
2022/08/29 04:15:54;;;;;;;15.02;6.07;;;;;;;11.80;100.00;101819.59;5051827;28;20047;-76
2022/08/29 04:18:22;;;;;;;9.18;5.85;;;;;;;11.74;100.00;101822.75;5049380;28;20037;-76
2022/08/29 04:20:47;;;;;;;11.15;5.72;;;;;;;11.60;100.00;101812.75;5047863;28;20040;-75
2022/08/29 04:23:13;;;;;;;14.40;5.70;;;;;;;11.56;100.00;101817.56;5059938;28;20060;-76
2022/08/29 04:25:47;;;;;;;13.25;5.95;;;;;;;11.56;100.00;101806.59;5044738;28;20037;-76
2022/08/29 04:28:13;;;;;;;13.93;6.40;;;;;;;11.53;100.00;101801.31;5064983;28;20115;-75
2022/08/29 04:30:47;;;;;;;18.48;7.18;;;;;;;11.59;100.00;101808.22;5051801;28;20048;-74
2022/08/29 04:33:20;;;;;;;24.92;7.20;;;;;;;11.67;100.00;101797.63;5043043;28;20479;-75
2022/08/29 04:35:48;;;;;;;24.08;7.55;;;;;;;11.68;100.00;101807.63;5060046;28;20037;-75
2022/08/29 04:38:16;;;;;;;15.68;6.95;;;;;;;11.67;100.00;101804.97;5080253;28;20480;-75
2022/08/29 04:40:47;;;;;;;15.13;8.60;;;;;;;11.80;100.00;101805.88;5069306;28;20080;-74
2022/08/29 04:43:20;;;;;;;24.10;8.23;;;;;;;11.90;100.00;101808.88;5054310;28;20483;-76
2022/08/29 04:45:54;;;;;;;18.93;8.17;;;;;;;11.97;100.00;101804.75;5060452;28;20127;-78
2022/08/29 04:48:20;;;;;;;20.40;7.88;;;;;;;11.95;100.00;101813.09;5061674;28;20376;-76
2022/08/29 04:50:57;;;;;;;32.35;8.50;;;;;;;12.05;100.00;101809.69;5053770;28;20025;-75
2022/08/29 04:53:24;;;;;;;21.25;7.45;;;;;;;12.12;100.00;101816.53;5056371;28;20036;-75
2022/08/29 04:56:10;;;;;;;17.42;7.53;;;;;;;12.23;100.00;101824.91;5076058;28;20032;-77
2022/08/29 04:58:40;;;;;;;18.30;6.88;;;;;;;12.34;100.00;101824.13;5063326;28;20032;-76
2022/08/29 05:01:06;;;;;;;29.08;7.65;;;;;;;12.34;100.00;101826.84;5058713;28;20506;-77
2022/08/29 05:03:38;;;;;;;21.08;8.23;;;;;;;12.36;100.00;101818.50;5059940;28;20333;-77
2022/08/29 05:06:09;;;;;;;29.98;7.85;;;;;;;12.48;100.00;101823.16;5068679;28;20048;-76
2022/08/29 05:08:42;;;;;;;18.48;7.38;;;;;;;12.52;100.00;101835.66;5059497;28;20033;-76
2022/08/29 05:11:15;;;;;;;20.25;7.50;;;;;;;12.53;100.00;101834.69;5052489;28;20119;-77
2022/08/29 05:13:43;;;;;;;19.60;7.50;;;;;;;12.66;100.00;101835.53;5066356;28;20360;-76
2022/08/29 05:16:11;;;;;;;31.33;7.82;;;;;;;12.62;100.00;101842.25;5056300;28;20051;-77
2022/08/29 05:18:43;;;;;;;20.17;8.02;;;;;;;12.64;100.00;101844.88;5057027;28;20120;-78
2022/08/29 05:21:11;;;;;;;30.17;8.77;;;;;;;12.71;100.00;101843.47;5035559;28;20057;-76
2022/08/29 05:23:37;;;;;;;22.15;7.70;;;;;;;12.74;100.00;101857.00;5056817;28;20029;-76
2022/08/29 05:26:07;;;;;;;27.20;10.20;;;;;;;12.81;100.00;101857.41;5035622;28;20124;-77
2022/08/29 05:28:35;;;;;;;16.15;7.85;;;;;;;12.82;100.00;101854.56;5055058;28;20033;-76
2022/08/29 05:31:02;;;;;;;24.73;8.68;;;;;;;12.87;100.00;101863.34;5054909;28;20037;-76
2022/08/29 05:33:35;;;;;;;20.48;8.77;;;;;;;12.93;100.00;101867.50;5072162;28;20035;-76
2022/08/29 05:36:06;;;;;;;25.38;8.52;;;;;;;12.93;100.00;101870.25;5062573;28;20037;-76
2022/08/29 05:38:33;;;;;;;39.97;10.27;;;;;;;12.91;100.00;101868.63;5050154;28;20029;-77
2022/08/29 05:41:00;;;;;;;19.85;8.65;;;;;;;12.81;100.00;101860.16;5064194;28;20374;-77
2022/08/29 05:43:33;;;;;;;33.65;8.98;;;;;;;12.83;100.00;101866.44;5067295;28;20031;-77
2022/08/29 05:46:04;;;;;;;25.95;9.10;;;;;;;12.83;100.00;101860.94;5058560;28;20354;-77
2022/08/29 05:48:32;;;;;;;26.27;9.98;;;;;;;12.75;100.00;101857.84;5070150;28;20369;-77
2022/08/29 05:50:58;;;;;;;29.13;9.35;;;;;;;12.73;100.00;101857.09;5062932;28;20024;-76
2022/08/29 05:53:33;;;;;;;37.75;9.55;;;;;;;12.86;100.00;101864.31;5056888;28;20041;-77
2022/08/29 05:55:59;;;;;;;19.52;8.77;;;;;;;12.97;100.00;101869.06;5055681;28;20434;-76
2022/08/29 05:58:27;;;;;;;28.20;9.23;;;;;;;13.06;100.00;101862.84;5061202;28;20036;-77
2022/08/29 06:00:55;;;;;;;27.33;9.05;;;;;;;13.22;100.00;101870.00;5064879;28;20037;-77
2022/08/29 06:03:21;;;;;;;19.10;8.93;;;;;;;13.27;100.00;101878.78;5038465;28;20067;-75
2022/08/29 06:05:51;;;;;;;24.48;9.20;;;;;;;13.36;100.00;101878.13;5055548;28;20036;-76
2022/08/29 06:08:17;;;;;;;28.63;9.48;;;;;;;13.46;100.00;101892.06;5074622;28;20040;-78
2022/08/29 06:10:45;;;;;;;31.73;9.20;;;;;;;13.63;100.00;101888.06;5072357;28;20016;-76
2022/08/29 06:13:13;;;;;;;20.75;8.25;;;;;;;13.82;100.00;101893.03;5059905;28;20040;-77
2022/08/29 06:15:44;;;;;;;23.27;9.45;;;;;;;13.83;100.00;101900.28;5043996;28;20029;-77
2022/08/29 06:18:10;;;;;;;29.83;8.70;;;;;;;13.95;100.00;101901.22;5056625;28;20079;-77
2022/08/29 06:20:37;;;;;;;40.22;10.07;;;;;;;14.02;100.00;101888.75;5072774;28;20428;-76
2022/08/29 06:23:03;;;;;;;28.08;9.77;;;;;;;14.13;100.00;101896.19;5050540;28;20072;-77
2022/08/29 06:25:28;;;;;;;24.65;10.07;;;;;;;14.22;100.00;101894.59;5068436;28;20048;-77
2022/08/29 06:27:58;;;;;;;22.65;9.70;;;;;;;14.29;100.00;101902.25;5070178;28;20082;-76
2022/08/29 06:30:26;;;;;;;52.00;13.25;;;;;;;14.35;100.00;101895.41;5049210;28;20457;-77
2022/08/29 06:32:53;;;;;;;34.53;11.95;;;;;;;14.74;100.00;101897.88;5072905;28;20112;-77
2022/08/29 06:35:19;;;;;;;27.73;11.60;;;;;;;14.72;100.00;101898.00;5049150;28;20562;-77
2022/08/29 06:37:45;;;;;;;46.80;14.27;;;;;;;14.70;100.00;101894.50;5060068;28;20041;-77
2022/08/29 06:40:11;;;;;;;33.53;12.15;;;;;;;14.73;100.00;101898.91;5058011;28;20524;-77
2022/08/29 06:42:37;;;;;;;38.30;12.18;;;;;;;14.64;100.00;101897.72;5069294;28;20056;-77
2022/08/29 06:45:05;;;;;;;33.08;11.90;;;;;;;14.97;100.00;101894.16;5051657;28;20037;-77
2022/08/29 06:47:39;;;;;;;25.90;11.55;;;;;;;15.35;100.00;101900.31;5073117;28;20074;-76
2022/08/29 06:50:05;;;;;;;30.77;11.35;;;;;;;15.37;100.00;101901.03;5065428;28;20427;-76
2022/08/29 06:52:31;;;;;;;28.88;11.73;;;;;;;15.63;100.00;101899.72;5066690;28;20395;-76
2022/08/29 06:55:10;;;;;;;33.47;10.68;;;;;;;15.74;100.00;101897.94;5032744;28;20488;-77
2022/08/29 06:57:44;;;;;;;29.25;10.85;;;;;;;15.74;100.00;101900.72;5045057;28;20039;-77
2022/08/29 07:00:13;;;;;;;42.58;11.40;;;;;;;15.85;100.00;101903.47;5072012;28;20053;-77
2022/08/29 07:02:41;;;;;;;27.08;11.70;;;;;;;15.85;100.00;101906.22;5062123;28;20025;-77
2022/08/29 07:05:08;;;;;;;33.13;9.68;;;;;;;15.79;100.00;101912.31;5053676;28;20028;-76
2022/08/29 07:07:34;;;;;;;28.73;9.48;;;;;;;15.96;100.00;101906.19;5072606;28;20052;-77
2022/08/29 07:09:59;;;;;;;24.40;9.50;;;;;;;16.22;100.00;101916.91;5058162;28;20163;-77
2022/08/29 07:12:26;;;;;;;23.60;10.18;;;;;;;16.29;100.00;101920.88;5071842;28;20415;-74
2022/08/29 07:14:56;;;;;;;22.25;9.75;;;;;;;16.36;100.00;101921.22;5016943;28;20175;-75
2022/08/29 07:17:25;;;;;;;22.40;9.30;;;;;;;16.95;100.00;101918.91;5037746;28;20087;-76
2022/08/29 07:19:53;;;;;;;33.47;10.02;;;;;;;16.88;100.00;101924.97;5059231;28;20037;-75
2022/08/29 07:22:19;;;;;;;23.20;9.45;;;;;;;16.48;100.00;101924.84;5065221;28;20032;-76
2022/08/29 07:24:54;;;;;;;28.65;9.15;;;;;;;16.27;100.00;101925.69;5058020;28;20407;-76
2022/08/29 07:27:21;;;;;;;31.77;9.75;;;;;;;16.33;100.00;101927.03;5058698;28;20538;-76
2022/08/29 07:29:46;;;;;;;30.75;9.75;;;;;;;16.47;100.00;101921.19;5064786;28;20036;-77
2022/08/29 07:32:12;;;;;;;27.75;9.40;;;;;;;16.96;100.00;101926.19;5068211;28;20400;-77
2022/08/29 07:34:43;;;;;;;33.38;10.30;;;;;;;16.78;100.00;101912.94;5063935;28;20024;-77
2022/08/29 07:37:10;;;;;;;29.38;8.98;;;;;;;17.12;100.00;101921.03;5065154;28;20060;-76
2022/08/29 07:39:37;;;;;;;31.45;9.00;;;;;;;17.51;100.00;101928.63;5062063;28;20116;-76
2022/08/29 07:42:03;;;;;;;26.20;8.82;;;;;;;17.88;100.00;101926.13;5039566;28;20467;-76
2022/08/29 07:44:31;;;;;;;25.50;10.07;;;;;;;18.33;100.00;101919.16;5068239;28;20071;-76
2022/08/29 07:46:59;;;;;;;24.58;9.02;;;;;;;18.39;100.00;101918.56;5064797;28;20045;-77
2022/08/29 07:49:27;;;;;;;28.83;9.18;;;;;;;19.02;100.00;101929.16;5081020;28;20191;-76
2022/08/29 07:51:55;;;;;;;24.02;8.60;;;;;;;19.23;100.00;101928.06;5061690;28;20460;-76
2022/08/29 07:54:25;;;;;;;27.67;8.50;;;;;;;19.03;100.00;101927.25;5020798;28;20515;-77
2022/08/29 07:56:52;;;;;;;33.25;8.30;;;;;;;19.74;100.00;101923.00;5064120;28;20045;-76
2022/08/29 07:59:19;;;;;;;30.17;8.35;;;;;;;20.28;100.00;101921.16;5044057;28;20040;-77
2022/08/29 08:01:46;;;;;;;27.30;8.07;;;;;;;20.06;100.00;101921.66;5082738;28;20042;-75
2022/08/29 08:04:12;;;;;;;24.92;6.47;;;;;;;20.09;100.00;101915.78;5065808;28;20029;-79
2022/08/29 08:06:43;;;;;;;23.95;7.50;;;;;;;20.33;100.00;101904.00;5071447;28;20151;-78
2022/08/29 08:09:09;;;;;;;22.50;7.55;;;;;;;21.41;97.32;101903.72;5039599;28;20029;-77
2022/08/29 08:11:37;;;;;;;14.60;5.35;;;;;;;21.59;92.00;101904.50;5057938;28;20086;-78
2022/08/29 08:14:07;;;;;;;11.85;4.38;;;;;;;21.21;93.02;101898.41;5067678;28;20029;-78
2022/08/29 08:16:34;;;;;;;14.85;4.35;;;;;;;21.38;89.97;101910.50;5059652;28;20025;-78
2022/08/29 08:19:04;;;;;;;11.65;4.47;;;;;;;21.21;89.53;101909.53;5072840;28;20032;-80
2022/08/29 08:21:30;;;;;;;19.17;4.30;;;;;;;21.15;86.67;101910.19;5056736;28;20476;-77
2022/08/29 08:24:04;;;;;;;15.95;3.83;;;;;;;21.22;81.79;101910.44;5056006;28;20075;-78
2022/08/29 08:26:35;;;;;;;14.57;3.80;;;;;;;21.82;79.36;101918.72;5057948;28;20036;-77
2022/08/29 08:29:02;;;;;;;16.17;3.92;;;;;;;21.77;78.56;101917.47;5062266;28;20055;-78
2022/08/29 08:31:29;;;;;;;15.43;3.28;;;;;;;22.08;77.79;101916.88;5056748;28;20028;-78
2022/08/29 08:33:59;;;;;;;18.10;3.97;;;;;;;22.17;77.09;101919.50;5062052;28;20043;-79
2022/08/29 08:36:28;;;;;;;13.02;3.42;;;;;;;21.46;77.00;101918.91;5049203;28;20100;-79
2022/08/29 08:38:58;;;;;;;13.63;3.85;;;;;;;21.07;79.28;101915.72;5072522;28;20507;-77
2022/08/29 08:41:45;;;;;;;13.65;3.05;;;;;;;20.09;84.88;101907.44;5076200;28;20024;-78
2022/08/29 08:44:21;;;;;;;16.25;2.97;;;;;;;20.18;84.31;101909.25;5060960;28;20029;-77
2022/08/29 08:46:51;;;;;;;12.80;3.78;;;;;;;19.76;84.99;101910.72;5065387;28;20044;-78
2022/08/29 08:49:31;;;;;;;14.93;3.30;;;;;;;19.54;86.28;101902.78;5068015;28;20033;-77
2022/08/29 08:52:02;;;;;;;13.32;3.30;;;;;;;19.49;86.91;101902.38;5064386;28;20029;-77
2022/08/29 08:54:45;;;;;;;14.55;2.97;;;;;;;19.18;89.73;101906.31;5055452;28;20025;-77
2022/08/29 08:57:14;;;;;;;15.82;3.22;;;;;;;19.15;89.19;101909.41;5075618;28;20024;-79
2022/08/29 08:59:45;;;;;;;7.85;2.80;;;;;;;20.23;86.49;101915.19;5060659;28;20025;-78
2022/08/29 09:02:33;;;;;;;10.43;2.50;;;;;;;20.28;82.74;101923.06;5061709;28;20037;-78
2022/08/29 09:05:23;;;;;;;8.85;2.75;;;;;;;20.40;80.42;101924.59;5062813;28;20487;-77
2022/08/29 09:08:12;;;;;;;12.50;2.97;;;;;;;20.25;83.06;101915.03;5060248;28;20578;-78
2022/08/29 09:10:38;;;;;;;12.43;3.45;;;;;;;20.52;82.17;101914.94;5049732;28;20044;-77
2022/08/29 09:13:35;;;;;;;12.05;2.80;;;;;;;20.31;83.53;101911.63;5063549;28;20032;-76
2022/08/29 09:16:08;;;;;;;9.32;3.10;;;;;;;20.09;84.29;101913.88;5063508;28;20062;-77
2022/08/29 09:18:45;;;;;;;10.77;3.35;;;;;;;19.97;85.99;101913.22;5051231;28;20036;-78
2022/08/29 09:21:14;;;;;;;13.50;3.08;;;;;;;20.43;83.54;101923.38;5050459;28;20716;-77
2022/08/29 09:23:46;;;;;;;9.82;2.83;;;;;;;19.62;86.74;101914.84;5055908;28;20032;-77
2022/08/29 09:26:20;;;;;;;12.15;3.67;;;;;;;20.09;84.67;101927.78;5063812;28;20501;-77
2022/08/29 09:28:56;;;;;;;9.82;2.92;;;;;;;20.69;81.56;101917.91;5057092;28;20072;-78
2022/08/29 09:31:33;;;;;;;14.23;3.08;;;;;;;21.56;78.22;101916.03;5066973;28;20056;-77
2022/08/29 09:34:09;;;;;;;10.68;2.92;;;;;;;22.47;74.47;101911.53;5072882;28;20033;-76
2022/08/29 09:36:49;;;;;;;17.63;2.75;;;;;;;22.66;70.48;101913.09;5068264;28;20044;-75
2022/08/29 09:39:27;;;;;;;11.13;2.80;;;;;;;22.04;73.06;101910.75;5051948;28;20376;-76
2022/08/29 09:42:11;;;;;;;10.88;3.28;;;;;;;21.99;74.74;101918.78;5057804;28;20051;-75
2022/08/29 09:44:39;;;;;;;8.65;2.75;;;;;;;21.54;75.50;101915.28;5061149;28;20033;-76
2022/08/29 09:47:18;;;;;;;9.88;2.72;;;;;;;21.30;74.21;101916.91;5070090;28;20025;-76
2022/08/29 09:50:16;;;;;;;14.10;3.15;;;;;;;21.36;73.48;101926.50;5055864;28;20461;-77
2022/08/29 09:52:55;;;;;;;10.95;3.10;;;;;;;21.22;76.78;101924.38;5058518;28;20086;-77
2022/08/29 09:55:47;;;;;;;11.88;3.10;;;;;;;21.30;74.25;101916.03;5056730;28;20093;-77
2022/08/29 09:58:17;;;;;;;16.60;3.28;;;;;;;21.43;75.13;101915.56;5067687;28;20028;-78
2022/08/29 10:01:09;;;;;;;9.30;2.80;;;;;;;21.97;72.48;101918.03;5056070;28;20132;-76
2022/08/29 10:03:53;;;;;;;15.85;3.20;;;;;;;22.61;69.00;101917.44;5041382;28;20028;-77
2022/08/29 10:06:24;;;;;;;11.88;2.92;;;;;;;22.68;69.68;101907.34;5063295;28;20029;-76
2022/08/29 10:08:58;;;;;;;7.40;2.67;;;;;;;23.11;68.86;101910.78;5074089;28;20182;-76
2022/08/29 10:11:36;;;;;;;12.45;2.90;;;;;;;23.68;66.66;101899.38;5061439;28;20357;-76
2022/08/29 10:14:10;;;;;;;9.95;3.60;;;;;;;23.34;64.84;101915.63;5072274;28;20184;-75
2022/08/29 10:16:55;;;;;;;13.07;2.67;;;;;;;22.83;68.58;101913.94;5064942;28;20445;-75
2022/08/29 10:19:26;;;;;;;14.73;3.13;;;;;;;23.05;65.47;101914.25;5074525;28;20031;-75
2022/08/29 10:22:23;;;;;;;6.72;2.42;;;;;;;22.34;66.91;101912.03;5066207;28;20053;-76
2022/08/29 10:24:59;;;;;;;12.52;2.88;;;;;;;22.74;68.32;101903.81;5058449;28;20029;-74
2022/08/29 10:27:35;;;;;;;11.57;2.65;;;;;;;22.44;68.27;101894.25;5069186;28;20492;-75
2022/08/29 10:30:16;;;;;;;10.93;3.20;;;;;;;22.68;67.22;101897.03;5057781;28;20103;-75
2022/08/29 10:33:03;;;;;;;9.55;2.92;;;;;;;22.43;68.77;101898.97;5052539;28;20024;-75
2022/08/29 10:35:36;;;;;;;9.00;2.70;;;;;;;22.62;68.67;101896.88;5061091;28;20832;-76
2022/08/29 10:38:28;;;;;;;11.38;3.00;;;;;;;23.72;63.91;101899.03;5055634;28;20041;-74
2022/08/29 10:41:25;;;;;;;6.50;2.78;;;;;;;22.68;67.93;101901.75;5041394;28;20059;-74
2022/08/29 10:44:00;;;;;;;9.35;3.03;;;;;;;22.38;67.65;101898.59;5050250;28;20037;-75
2022/08/29 10:46:52;;;;;;;8.00;2.90;;;;;;;22.83;65.86;101896.34;5058400;28;20075;-76
2022/08/29 10:49:47;;;;;;;10.55;2.47;;;;;;;22.94;65.45;101887.59;5060547;28;20107;-77
2022/08/29 10:52:22;;;;;;;8.83;3.00;;;;;;;23.10;64.68;101886.69;5064017;28;20036;-75
2022/08/29 10:55:08;;;;;;;11.30;3.05;;;;;;;22.33;67.12;101887.09;5052481;28;20298;-76
2022/08/29 10:58:02;;;;;;;8.80;3.20;;;;;;;22.83;65.80;101879.56;5065574;28;20416;-75
2022/08/29 11:00:46;;;;;;;11.43;2.95;;;;;;;22.26;69.13;101874.88;5068914;28;20029;-75
2022/08/29 11:03:34;;;;;;;11.55;3.55;;;;;;;22.32;69.34;101883.44;5058211;28;20393;-75
2022/08/29 11:06:18;;;;;;;6.95;2.92;;;;;;;22.33;68.26;101862.88;5060350;28;20074;-75
2022/08/29 11:08:49;;;;;;;15.13;3.17;;;;;;;22.28;68.88;101868.03;5055396;28;20107;-75
2022/08/29 11:11:21;;;;;;;7.18;2.78;;;;;;;22.58;67.54;101865.66;5059877;28;20021;-76
2022/08/29 11:13:55;;;;;;;9.13;2.97;;;;;;;22.56;69.48;101871.41;5057222;28;20037;-75
2022/08/29 11:16:27;;;;;;;6.70;2.65;;;;;;;23.03;64.98;101857.69;5065363;28;20536;-74
2022/08/29 11:19:00;;;;;;;6.38;2.53;;;;;;;22.85;66.20;101853.19;5067342;28;20028;-75
2022/08/29 11:21:48;;;;;;;11.40;3.00;;;;;;;22.94;66.99;101851.28;5067465;28;20061;-75
2022/08/29 11:24:19;;;;;;;8.02;2.60;;;;;;;22.93;64.73;101855.09;5070798;28;20093;-75
2022/08/29 11:27:07;;;;;;;7.07;3.17;;;;;;;23.54;65.71;101851.75;5057368;28;20079;-74
2022/08/29 11:29:56;;;;;;;8.93;3.15;;;;;;;23.54;65.17;101840.56;5055734;28;20025;-75
2022/08/29 11:32:22;;;;;;;7.88;2.80;;;;;;;23.05;64.72;101833.25;5059177;28;20103;-75
2022/08/29 11:35:22;;;;;;;8.77;3.05;;;;;;;23.08;63.91;101838.50;5059765;28;20115;-75
2022/08/29 11:38:40;;;;;;;9.80;2.80;;;;;;;22.58;63.70;101832.16;5064639;28;20476;-76